Station Historical Data
Daily Summary for September 9, 2017 Units:  English    Metric   Both
« Previous Day
Next Day »
Daily Weekly Monthly Yearly Custom
  High: Low: Average:
Temperature: 64.1 °F 43.7 °F 54.5 °F
Dew Point: 49.1 °F 41.2 °F 45.5 °F
Humidity: 92% 52% 73%
Wind Speed: 7.0mph 0.0mph 1mph
Wind Gust: 11.0mph - -
Wind- - SW
Pressure: 30.43 in 30.29 in -
Precipitation: 0.00 in    
Historical Graphs
 
 
Tabular Data for September 9, 2017
Time Temperature Dew Point Pressure Wind Wind Speed Wind Gust Humidity Rainfall Rate (Hourly)
00:04 53.5 °F 47.8 °F 30.29 in Calm     81% 0.00 in
00:14 52.7 °F 47.4 °F 30.29 in Calm   2.0 mph 82% 0.00 in
00:19 52.5 °F 47.5 °F 30.30 in Calm     83% 0.00 in
00:24 52.2 °F 47.2 °F 30.29 in Calm     83% 0.00 in
00:29 52.0 °F 47.0 °F 30.30 in Calm     83% 0.00 in
00:34 51.7 °F 47.0 °F 30.30 in Calm     84% 0.00 in
00:39 51.4 °F 46.7 °F 30.30 in Calm     84% 0.00 in
00:44 51.2 °F 46.5 °F 30.30 in Calm     84% 0.00 in
00:49 51.1 °F 46.7 °F 30.30 in Calm     85% 0.00 in
00:54 50.8 °F 46.5 °F 30.30 in Calm     85% 0.00 in
00:59 50.6 °F 46.6 °F 30.30 in Calm     86% 0.00 in
01:04 50.4 °F 46.4 °F 30.30 in Calm     86% 0.00 in
01:09 50.3 °F 46.3 °F 30.30 in Calm     86% 0.00 in
01:14 49.9 °F 45.9 °F 30.31 in Calm     86% 0.00 in
01:19 49.6 °F 45.6 °F 30.31 in Calm     86% 0.00 in
01:24 49.4 °F 45.7 °F 30.31 in Calm     87% 0.00 in
01:29 49.2 °F 45.5 °F 30.31 in Calm     87% 0.00 in
01:34 49.2 °F 45.8 °F 30.31 in Calm     88% 0.00 in
01:39 49.2 °F 45.8 °F 30.31 in Calm     88% 0.00 in
01:44 49.2 °F 45.8 °F 30.31 in Calm     88% 0.00 in
01:49 49.1 °F 45.7 °F 30.31 in Calm     88% 0.00 in
01:54 49.2 °F 45.8 °F 30.31 in Calm     88% 0.00 in
01:59 49.1 °F 45.7 °F 30.31 in Calm     88% 0.00 in
02:04 49.1 °F 45.7 °F 30.31 in Calm     88% 0.00 in
02:09 49.1 °F 45.7 °F 30.31 in Calm     88% 0.00 in
02:14 49.1 °F 45.7 °F 30.31 in Calm     88% 0.00 in
02:19 49.1 °F 45.7 °F 30.31 in Calm     88% 0.00 in
02:24 49.1 °F 45.7 °F 30.31 in Calm     88% 0.00 in
02:29 49.1 °F 45.7 °F 30.32 in Calm     88% 0.00 in
02:34 49.1 °F 45.7 °F 30.32 in Calm     88% 0.00 in
02:39 49.0 °F 45.6 °F 30.32 in Calm     88% 0.00 in
02:44 49.0 °F 45.6 °F 30.32 in Calm     88% 0.00 in
02:49 48.9 °F 45.5 °F 30.32 in Calm     88% 0.00 in
02:54 49.0 °F 45.9 °F 30.32 in Calm     89% 0.00 in
02:59 49.1 °F 46.0 °F 30.32 in Calm     89% 0.00 in
03:04 49.2 °F 46.1 °F 30.32 in Calm     89% 0.00 in
03:09 49.3 °F 46.2 °F 30.33 in Calm     89% 0.00 in
03:14 49.2 °F 45.8 °F 30.33 in Calm     88% 0.00 in
03:19 49.1 °F 45.7 °F 30.33 in Calm     88% 0.00 in
03:24 49.0 °F 45.6 °F 30.33 in Calm     88% 0.00 in
03:29 48.8 °F 45.4 °F 30.33 in Calm     88% 0.00 in
03:34 48.8 °F 45.7 °F 30.33 in Calm     89% 0.00 in
03:39 48.6 °F 45.5 °F 30.33 in Calm     89% 0.00 in
03:44 48.5 °F 45.4 °F 30.33 in Calm     89% 0.00 in
03:49 48.4 °F 45.3 °F 30.33 in Calm     89% 0.00 in
03:54 48.5 °F 45.4 °F 30.33 in Calm   2.0 mph 89% 0.00 in
03:59 48.6 °F 45.5 °F 30.33 in Calm   2.0 mph 89% 0.00 in
04:04 48.5 °F 45.4 °F 30.33 in Calm   1.0 mph 89% 0.00 in
04:09 48.4 °F 45.3 °F 30.33 in Calm     89% 0.00 in
04:14 48.3 °F 45.2 °F 30.33 in Calm     89% 0.00 in
04:19 48.0 °F 44.6 °F 30.33 in Calm     88% 0.00 in
04:24 47.9 °F 44.8 °F 30.33 in Calm     89% 0.00 in
04:29 47.9 °F 44.8 °F 30.33 in Calm     89% 0.00 in
04:34 48.1 °F 45.0 °F 30.34 in Calm   1.0 mph 89% 0.00 in
04:39 48.2 °F 45.1 °F 30.33 in Calm     89% 0.00 in
04:44 48.2 °F 44.8 °F 30.34 in Calm     88% 0.00 in
04:49 48.2 °F 44.8 °F 30.34 in Calm     88% 0.00 in
04:54 48.1 °F 44.7 °F 30.34 in Calm   2.0 mph 88% 0.00 in
04:59 48.0 °F 44.6 °F 30.34 in Calm   2.0 mph 88% 0.00 in
05:04 47.8 °F 44.4 °F 30.34 in Calm     88% 0.00 in
05:09 47.5 °F 44.1 °F 30.34 in Calm     88% 0.00 in
05:14 47.2 °F 43.8 °F 30.34 in Calm     88% 0.00 in
05:19 46.8 °F 43.4 °F 30.34 in Calm     88% 0.00 in
05:24 46.3 °F 42.9 °F 30.34 in Calm     88% 0.00 in
05:29 46.0 °F 42.6 °F 30.35 in Calm     88% 0.00 in
05:34 45.9 °F 42.5 °F 30.35 in Calm     88% 0.00 in
05:39 45.6 °F 42.5 °F 30.35 in Calm     89% 0.00 in
05:44 45.4 °F 42.3 °F 30.35 in Calm     89% 0.00 in
05:49 45.1 °F 42.1 °F 30.36 in Calm     89% 0.00 in
05:54 45.0 °F 42.0 °F 30.36 in Calm     89% 0.00 in
05:59 44.9 °F 41.9 °F 30.36 in Calm     89% 0.00 in
06:04 44.8 °F 41.8 °F 30.36 in Calm     89% 0.00 in
06:09 44.6 °F 41.8 °F 30.36 in Calm     90% 0.00 in
06:14 44.6 °F 41.8 °F 30.37 in Calm     90% 0.00 in
06:19 44.5 °F 41.7 °F 30.37 in Calm     90% 0.00 in
06:24 44.4 °F 41.7 °F 30.37 in Calm     90% 0.00 in
06:29 44.2 °F 41.5 °F 30.37 in Calm     90% 0.00 in
06:34 44.1 °F 41.4 °F 30.37 in Calm     90% 0.00 in
06:39 44.0 °F 41.3 °F 30.37 in Calm     90% 0.00 in
06:44 43.9 °F 41.2 °F 30.38 in Calm     90% 0.00 in
06:49 43.8 °F 41.3 °F 30.38 in Calm     91% 0.00 in
06:54 43.7 °F 41.2 °F 30.38 in Calm     91% 0.00 in
06:59 43.7 °F 41.2 °F 30.38 in Calm     91% 0.00 in
07:04 43.8 °F 41.3 °F 30.38 in Calm     91% 0.00 in
07:09 43.9 °F 41.4 °F 30.38 in Calm     91% 0.00 in
07:14 44.1 °F 41.6 °F 30.38 in Calm     91% 0.00 in
07:19 44.4 °F 41.9 °F 30.38 in Calm     91% 0.00 in
07:24 44.8 °F 42.6 °F 30.39 in Calm     92% 0.00 in
07:29 45.6 °F 43.4 °F 30.39 in Calm     92% 0.00 in
07:34 46.3 °F 44.1 °F 30.39 in Calm   1.0 mph 92% 0.00 in
07:39 47.0 °F 44.8 °F 30.39 in Calm   3.0 mph 92% 0.00 in
07:44 47.5 °F 45.3 °F 30.40 in Calm   4.0 mph 92% 0.00 in
07:49 48.1 °F 45.9 °F 30.40 in Calm   2.0 mph 92% 0.00 in
07:54 48.8 °F 46.3 °F 30.40 in North 1.0 mph 3.0 mph 91% 0.00 in
07:59 49.4 °F 46.6 °F 30.40 in North 1.0 mph 5.0 mph 90% 0.00 in
08:04 50.1 °F 46.7 °F 30.40 in Calm   3.0 mph 88% 0.00 in
08:09 50.7 °F 46.7 °F 30.40 in Calm   5.0 mph 86% 0.00 in
08:14 51.5 °F 46.8 °F 30.40 in North 2.0 mph 3.0 mph 84% 0.00 in
08:19 52.1 °F 46.8 °F 30.40 in NNW 1.0 mph 5.0 mph 82% 0.00 in
08:24 52.6 °F 46.6 °F 30.40 in Calm   5.0 mph 80% 0.00 in
08:29 53.3 °F 46.6 °F 30.40 in NNW 2.0 mph 5.0 mph 78% 0.00 in
08:34 53.9 °F 46.9 °F 30.41 in NNW 2.0 mph 5.0 mph 77% 0.00 in
08:39 54.4 °F 47.0 °F 30.41 in North 1.0 mph 4.0 mph 76% 0.00 in
08:44 54.8 °F 46.7 °F 30.41 in North 1.0 mph 6.0 mph 74% 0.00 in
08:49 55.1 °F 46.6 °F 30.41 in NNW 2.0 mph 7.0 mph 73% 0.00 in
08:54 55.7 °F 47.2 °F 30.41 in NW 3.0 mph 6.0 mph 73% 0.00 in
08:59 56.0 °F 47.5 °F 30.41 in WNW 2.0 mph 4.0 mph 73% 0.00 in
09:04 56.0 °F 47.1 °F 30.41 in NNW 2.0 mph 5.0 mph 72% 0.00 in
09:09 56.4 °F 47.1 °F 30.41 in NNW 1.0 mph 7.0 mph 71% 0.00 in
09:14 56.8 °F 47.1 °F 30.41 in NW 2.0 mph 5.0 mph 70% 0.00 in
09:19 56.8 °F 46.7 °F 30.41 in NNE 2.0 mph 5.0 mph 69% 0.00 in
09:24 56.8 °F 46.0 °F 30.41 in NNE 1.0 mph 7.0 mph 67% 0.00 in
09:29 57.4 °F 46.5 °F 30.41 in NNE 1.0 mph 5.0 mph 67% 0.00 in
09:34 57.2 °F 45.9 °F 30.42 in North 2.0 mph 7.0 mph 66% 0.00 in
09:39 57.6 °F 45.5 °F 30.42 in North 4.0 mph 9.0 mph 64% 0.00 in
09:44 57.6 °F 45.9 °F 30.42 in NNW 4.0 mph 9.0 mph 65% 0.00 in
09:49 56.9 °F 45.3 °F 30.42 in North 3.0 mph 8.0 mph 65% 0.00 in
09:54 56.9 °F 45.3 °F 30.42 in North 3.0 mph 6.0 mph 65% 0.00 in
09:59 57.7 °F 46.4 °F 30.42 in NNE 3.0 mph 9.0 mph 66% 0.00 in
10:04 57.5 °F 45.8 °F 30.43 in North 1.0 mph 5.0 mph 65% 0.00 in
10:09 56.7 °F 45.5 °F 30.43 in North 4.0 mph 5.0 mph 66% 0.00 in
10:14 56.6 °F 44.6 °F 30.42 in NNW 2.0 mph 6.0 mph 64% 0.00 in
10:19 56.4 °F 44.8 °F 30.43 in Calm   3.0 mph 65% 0.00 in
10:24 56.4 °F 44.8 °F 30.43 in North 1.0 mph 6.0 mph 65% 0.00 in
10:29 56.7 °F 45.1 °F 30.43 in Calm   5.0 mph 65% 0.00 in
10:34 56.8 °F 44.3 °F 30.43 in NNW 5.0 mph 9.0 mph 63% 0.00 in
10:39 57.1 °F 44.2 °F 30.43 in North 3.0 mph 9.0 mph 62% 0.00 in
10:44 57.9 °F 45.0 °F 30.43 in North 3.0 mph 8.0 mph 62% 0.00 in
10:49 58.8 °F 44.9 °F 30.43 in North 3.0 mph 8.0 mph 60% 0.00 in
10:54 59.9 °F 46.8 °F 30.43 in NNE 2.0 mph 6.0 mph 62% 0.00 in
10:59 60.0 °F 46.1 °F 30.43 in NNE 2.0 mph 6.0 mph 60% 0.00 in
11:04 60.1 °F 45.7 °F 30.43 in NNE 2.0 mph 7.0 mph 59% 0.00 in
11:09 60.4 °F 46.9 °F 30.43 in NNW 3.0 mph 10.0 mph 61% 0.00 in
11:14 60.9 °F 45.6 °F 30.43 in NNW 1.0 mph 7.0 mph 57% 0.00 in
11:19 59.4 °F 45.1 °F 30.43 in NNE 1.0 mph 8.0 mph 59% 0.00 in
11:24 57.9 °F 43.2 °F 30.43 in NW 3.0 mph 7.0 mph 58% 0.00 in
11:29 59.0 °F 44.2 °F 30.43 in NNW 3.0 mph 10.0 mph 58% 0.00 in
11:34 58.7 °F 45.7 °F 30.43 in NNW 4.0 mph 10.0 mph 62% 0.00 in
11:39 57.7 °F 43.5 °F 30.43 in NNW 3.0 mph 8.0 mph 59% 0.00 in
11:44 59.3 °F 45.8 °F 30.43 in NNE 3.0 mph 5.0 mph 61% 0.00 in
11:49 60.0 °F 45.6 °F 30.43 in NNE 2.0 mph 6.0 mph 59% 0.00 in
11:54 59.3 °F 46.7 °F 30.43 in NNE 3.0 mph 7.0 mph 63% 0.00 in
11:59 61.1 °F 47.5 °F 30.43 in NNE 2.0 mph 7.0 mph 61% 0.00 in
12:09 60.9 °F 45.1 °F 30.43 in North 3.0 mph 9.0 mph 56% 0.00 in
12:14 59.8 °F 45.9 °F 30.43 in North 3.0 mph 9.0 mph 60% 0.00 in
12:19 61.1 °F 47.1 °F 30.43 in NNW 3.0 mph 6.0 mph 60% 0.00 in
12:24 61.5 °F 45.2 °F 30.43 in Calm   5.0 mph 55% 0.00 in
12:29 62.0 °F 46.1 °F 30.43 in NE 4.0 mph 6.0 mph 56% 0.00 in
12:34 60.9 °F 45.1 °F 30.43 in North 3.0 mph 7.0 mph 56% 0.00 in
12:39 59.4 °F 45.1 °F 30.43 in NW 3.0 mph 6.0 mph 59% 0.00 in
12:44 61.1 °F 47.1 °F 30.43 in NE 3.0 mph 6.0 mph 60% 0.00 in
12:49 62.4 °F 47.0 °F 30.42 in NNE 2.0 mph 7.0 mph 57% 0.00 in
12:54 62.4 °F 47.0 °F 30.43 in NNE 3.0 mph 10.0 mph 57% 0.00 in
12:59 61.7 °F 45.4 °F 30.43 in NNE 4.0 mph 11.0 mph 55% 0.00 in
13:04 61.9 °F 47.9 °F 30.43 in NNE 4.0 mph 11.0 mph 60% 0.00 in
13:09 62.3 °F 46.4 °F 30.43 in North 3.0 mph 8.0 mph 56% 0.00 in
13:14 62.3 °F 45.4 °F 30.43 in NNE 2.0 mph 7.0 mph 54% 0.00 in
13:19 61.1 °F 45.7 °F 30.42 in North 1.0 mph 6.0 mph 57% 0.00 in
13:24 61.5 °F 46.1 °F 30.42 in NE 3.0 mph 8.0 mph 57% 0.00 in
13:29 62.6 °F 48.1 °F 30.42 in NW 2.0 mph 5.0 mph 59% 0.00 in
13:34 61.1 °F 44.8 °F 30.42 in West 2.0 mph 6.0 mph 55% 0.00 in
13:39 62.1 °F 47.1 °F 30.43 in SSE 1.0 mph 5.0 mph 58% 0.00 in
13:44 62.1 °F 46.2 °F 30.42 in ENE 3.0 mph 8.0 mph 56% 0.00 in
13:49 61.7 °F 45.8 °F 30.43 in NNW 7.0 mph 8.0 mph 56% 0.00 in
13:54 62.0 °F 44.2 °F 30.42 in NNW 4.0 mph 8.0 mph 52% 0.00 in
13:59 62.5 °F 46.6 °F 30.42 in NNW 3.0 mph 7.0 mph 56% 0.00 in
14:04 63.3 °F 48.7 °F 30.42 in NNW 3.0 mph 10.0 mph 59% 0.00 in
14:09 62.7 °F 44.8 °F 30.42 in NNW 4.0 mph 10.0 mph 52% 0.00 in
14:14 62.0 °F 47.0 °F 30.42 in NNW 3.0 mph 10.0 mph 58% 0.00 in
14:19 62.1 °F 46.7 °F 30.42 in NW 3.0 mph 10.0 mph 57% 0.00 in
14:24 61.6 °F 44.3 °F 30.42 in NNW 3.0 mph 6.0 mph 53% 0.00 in
14:29 61.8 °F 44.5 °F 30.42 in NNW 3.0 mph 7.0 mph 53% 0.00 in
14:34 61.7 °F 46.3 °F 30.42 in Calm   7.0 mph 57% 0.00 in
14:39 62.3 °F 46.4 °F 30.42 in North 3.0 mph 7.0 mph 56% 0.00 in
14:44 62.0 °F 46.1 °F 30.42 in West 3.0 mph 9.0 mph 56% 0.00 in
14:49 62.1 °F 45.2 °F 30.41 in Calm   5.0 mph 54% 0.00 in
14:54 62.0 °F 45.6 °F 30.41 in NE 3.0 mph 7.0 mph 55% 0.00 in
14:59 62.1 °F 45.2 °F 30.42 in North 3.0 mph 7.0 mph 54% 0.00 in
15:04 62.3 °F 44.9 °F 30.41 in NNW 3.0 mph 7.0 mph 53% 0.00 in
15:09 63.4 °F 47.4 °F 30.41 in North 3.0 mph 8.0 mph 56% 0.00 in
15:14 62.3 °F 45.4 °F 30.41 in North 2.0 mph 8.0 mph 54% 0.00 in
15:19 62.1 °F 45.7 °F 30.41 in NNE 2.0 mph 5.0 mph 55% 0.00 in
15:24 61.9 °F 46.0 °F 30.41 in NE 2.0 mph 7.0 mph 56% 0.00 in
15:29 62.6 °F 47.1 °F 30.41 in NE 2.0 mph 7.0 mph 57% 0.00 in
15:34 64.1 °F 46.6 °F 30.40 in NE 2.0 mph 7.0 mph 53% 0.00 in
15:39 63.0 °F 46.6 °F 30.41 in North 2.0 mph 9.0 mph 55% 0.00 in
15:44 61.8 °F 45.9 °F 30.40 in NNW 3.0 mph 9.0 mph 56% 0.00 in
15:49 61.3 °F 45.5 °F 30.40 in NW 2.0 mph 7.0 mph 56% 0.00 in
15:54 62.8 °F 49.1 °F 30.40 in NNW 2.0 mph 5.0 mph 61% 0.00 in
15:59 63.6 °F 46.6 °F 30.40 in NE 6.0 mph 10.0 mph 54% 0.00 in
16:04 63.5 °F 47.5 °F 30.40 in ENE 3.0 mph 10.0 mph 56% 0.00 in
16:09 63.3 °F 47.8 °F 30.40 in ENE 2.0 mph 7.0 mph 57% 0.00 in
16:14 63.4 °F 46.5 °F 30.39 in NNE 2.0 mph 8.0 mph 54% 0.00 in
16:19 63.3 °F 46.4 °F 30.39 in North 2.0 mph 8.0 mph 54% 0.00 in
16:24 63.8 °F 47.8 °F 30.39 in NNW 2.0 mph 6.0 mph 56% 0.00 in
16:29 64.0 °F 48.5 °F 30.39 in NW 3.0 mph 6.0 mph 57% 0.00 in
16:34 63.7 °F 47.2 °F 30.39 in NNE 2.0 mph 5.0 mph 55% 0.00 in
16:39 62.4 °F 46.5 °F 30.40 in North 2.0 mph 6.0 mph 56% 0.00 in
16:44 61.6 °F 45.7 °F 30.40 in NNE 1.0 mph 4.0 mph 56% 0.00 in
16:49 62.2 °F 47.2 °F 30.39 in West 2.0 mph 5.0 mph 58% 0.00 in
16:54 63.9 °F 47.4 °F 30.39 in North 2.0 mph 7.0 mph 55% 0.00 in
16:59 63.1 °F 46.2 °F 30.39 in Calm   5.0 mph 54% 0.00 in
17:04 62.2 °F 46.3 °F 30.39 in Calm   5.0 mph 56% 0.00 in
17:09 62.3 °F 48.2 °F 30.40 in Calm   4.0 mph 60% 0.00 in
17:14 63.3 °F 47.8 °F 30.40 in North 1.0 mph 5.0 mph 57% 0.00 in
17:19 62.6 °F 47.6 °F 30.40 in NNE 2.0 mph 9.0 mph 58% 0.00 in
17:24 61.9 °F 47.0 °F 30.40 in NE 4.0 mph 9.0 mph 58% 0.00 in
17:29 60.7 °F 45.8 °F 30.40 in NNE 3.0 mph 9.0 mph 58% 0.00 in
17:34 60.5 °F 47.0 °F 30.40 in Calm   9.0 mph 61% 0.00 in
17:39 61.7 °F 46.3 °F 30.40 in NNW 4.0 mph 7.0 mph 57% 0.00 in
17:44 62.4 °F 47.4 °F 30.40 in NNW 2.0 mph 7.0 mph 58% 0.00 in
17:49 62.3 °F 47.3 °F 30.40 in North 2.0 mph 6.0 mph 58% 0.00 in
17:54 61.8 °F 46.9 °F 30.39 in North 3.0 mph 8.0 mph 58% 0.00 in
17:59 61.2 °F 46.3 °F 30.39 in North 2.0 mph 5.0 mph 58% 0.00 in
18:04 60.9 °F 46.9 °F 30.39 in North 1.0 mph 5.0 mph 60% 0.00 in
18:09 61.1 °F 47.1 °F 30.40 in North 1.0 mph 3.0 mph 60% 0.00 in
18:14 60.9 °F 46.5 °F 30.40 in NNE 1.0 mph 7.0 mph 59% 0.00 in
18:19 60.5 °F 46.1 °F 30.40 in NNE 2.0 mph 7.0 mph 59% 0.00 in
18:24 60.5 °F 46.1 °F 30.40 in NNW 2.0 mph 7.0 mph 59% 0.00 in
18:29 60.2 °F 46.3 °F 30.40 in North 1.0 mph 5.0 mph 60% 0.00 in
18:34 60.2 °F 45.8 °F 30.39 in NNW 2.0 mph 5.0 mph 59% 0.00 in
18:44 60.0 °F 46.5 °F 30.40 in NNW 2.0 mph 5.0 mph 61% 0.00 in
18:49 59.6 °F 46.1 °F 30.40 in NNW 1.0 mph 6.0 mph 61% 0.00 in
18:54 59.5 °F 46.0 °F 30.40 in NNW 2.0 mph 7.0 mph 61% 0.00 in
18:59 59.3 °F 45.8 °F 30.40 in NNW 2.0 mph 7.0 mph 61% 0.00 in
19:04 59.0 °F 46.0 °F 30.40 in NNW 2.0 mph 7.0 mph 62% 0.00 in
19:09 58.8 °F 46.2 °F 30.40 in Calm   4.0 mph 63% 0.00 in
19:14 58.3 °F 46.2 °F 30.40 in NNW 1.0 mph 4.0 mph 64% 0.00 in
19:19 58.1 °F 45.6 °F 30.40 in NNW 1.0 mph 4.0 mph 63% 0.00 in
19:24 57.8 °F 45.7 °F 30.40 in Calm   2.0 mph 64% 0.00 in
19:29 57.5 °F 45.8 °F 30.40 in Calm     65% 0.00 in
19:34 57.1 °F 45.8 °F 30.40 in Calm   2.0 mph 66% 0.00 in
19:39 56.8 °F 45.6 °F 30.40 in Calm     66% 0.00 in
19:44 56.6 °F 45.4 °F 30.40 in Calm     66% 0.00 in
19:49 56.4 °F 45.6 °F 30.40 in Calm     67% 0.00 in
19:54 56.2 °F 45.4 °F 30.40 in Calm     67% 0.00 in
19:59 56.2 °F 45.8 °F 30.40 in Calm     68% 0.00 in
20:04 55.9 °F 45.5 °F 30.40 in Calm     68% 0.00 in
20:09 55.4 °F 45.4 °F 30.40 in Calm     69% 0.00 in
20:14 55.3 °F 45.3 °F 30.40 in Calm     69% 0.00 in
20:19 55.2 °F 45.2 °F 30.40 in Calm     69% 0.00 in
20:24 55.1 °F 45.5 °F 30.41 in Calm     70% 0.00 in
20:29 55.0 °F 45.4 °F 30.41 in Calm     70% 0.00 in
20:34 54.9 °F 45.3 °F 30.41 in Calm     70% 0.00 in
20:39 54.5 °F 45.3 °F 30.41 in Calm     71% 0.00 in
20:44 54.2 °F 45.4 °F 30.41 in Calm     72% 0.00 in
20:49 53.8 °F 45.3 °F 30.41 in Calm     73% 0.00 in
20:54 53.6 °F 45.5 °F 30.41 in Calm     74% 0.00 in
20:59 53.3 °F 45.2 °F 30.41 in Calm     74% 0.00 in
21:04 53.0 °F 45.3 °F 30.41 in Calm     75% 0.00 in
21:09 52.7 °F 45.3 °F 30.42 in Calm     76% 0.00 in
21:14 52.3 °F 45.0 °F 30.42 in Calm     76% 0.00 in
21:19 52.3 °F 45.0 °F 30.42 in Calm     76% 0.00 in
21:24 52.4 °F 45.1 °F 30.42 in Calm     76% 0.00 in
21:29 52.0 °F 45.0 °F 30.42 in Calm     77% 0.00 in
21:34 51.9 °F 44.9 °F 30.42 in Calm     77% 0.00 in
21:39 51.7 °F 45.1 °F 30.42 in Calm     78% 0.00 in
21:44 51.7 °F 45.1 °F 30.42 in Calm     78% 0.00 in
21:54 51.1 °F 44.8 °F 30.42 in Calm     79% 0.00 in
21:59 51.0 °F 44.7 °F 30.42 in Calm     79% 0.00 in
22:04 51.1 °F 44.8 °F 30.42 in Calm     79% 0.00 in
22:09 50.7 °F 44.4 °F 30.42 in Calm     79% 0.00 in
22:14 50.6 °F 45.0 °F 30.42 in Calm     81% 0.00 in
22:19 50.4 °F 44.8 °F 30.42 in Calm     81% 0.00 in
22:24 50.3 °F 45.0 °F 30.42 in Calm     82% 0.00 in
22:29 50.1 °F 44.5 °F 30.42 in Calm     81% 0.00 in
22:34 50.0 °F 44.7 °F 30.42 in Calm     82% 0.00 in
22:39 49.8 °F 44.5 °F 30.42 in Calm     82% 0.00 in
22:44 49.7 °F 44.4 °F 30.43 in Calm     82% 0.00 in
22:49 49.9 °F 44.9 °F 30.43 in Calm     83% 0.00 in
22:54 49.9 °F 44.9 °F 30.43 in Calm     83% 0.00 in
22:59 50.1 °F 45.1 °F 30.43 in Calm     83% 0.00 in
23:04 50.5 °F 45.5 °F 30.43 in Calm     83% 0.00 in
23:09 50.8 °F 45.5 °F 30.43 in Calm     82% 0.00 in
23:14 50.9 °F 45.6 °F 30.43 in Calm     82% 0.00 in
23:19 50.9 °F 45.6 °F 30.43 in Calm     82% 0.00 in
23:24 51.0 °F 45.7 °F 30.43 in Calm     82% 0.00 in
23:29 50.9 °F 45.6 °F 30.43 in Calm     82% 0.00 in
23:34 50.7 °F 45.7 °F 30.43 in Calm     83% 0.00 in
23:39 50.4 °F 45.4 °F 30.43 in Calm     83% 0.00 in
23:44 50.3 °F 45.6 °F 30.43 in Calm     84% 0.00 in
23:49 50.2 °F 45.6 °F 30.43 in Calm     84% 0.00 in
23:54 50.0 °F 45.4 °F 30.43 in Calm     84% 0.00 in
23:59 49.6 °F 45.3 °F 30.43 in Calm     85% 0.00 in
Buffalo, New York, USA
Compliments of Weather Underground - 2.5 mb